Randolph, Alabama
Current Conditions -  °F | °C
As of 9:53 AM on Wednesday 28 Jan 2015 (Local Time) from KEET Reporting Station
Clear Clear  
Wind Chill:   Ceiling: Unl
Heat Index:   Visibility: 10mi
Dew Point: -1°   Wind: 7mph
Humidity: 60%   Direction: 340°NNW
Pressure: 30.31"   Gusts: NA
Location:  32.9°N, 86.91°W
Report Text: KEET 281553Z AUTO 34006KT 10SM CLR 06/M01 A3031 RMK AO2 SLP267 T00611011
Loading
Personal Weather Stations






























Interactive Weather Map New forecast layout! Learn more

10-Day Weather Forecast

Advertisements
Track Severe Weather on mobile